Time;durP1;ratioP1;P1;durP2;ratioP2;P2;SDS_P1;SDS_P2;PMS_P1;PMS_P2;Temp;Humidity;BMP_temperature;BMP_pressure;BME280_temperature;BME280_humidity;BME280_pressure;Samples;Min_cycle;Max_cycle;Signal;HPM_P1;HPM_P2
2021/12/21 00:01:56;;;;;;;0.57;0.20;;;1.50;99.90;;;;;;4977043;28;20541;-76
2021/12/21 00:04:22;;;;;;;0.00;0.00;;;1.40;99.90;;;;;;4976920;28;20061;-76
2021/12/21 00:06:47;;;;;;;0.22;0.22;;;1.40;99.90;;;;;;4959819;28;20039;-76
2021/12/21 00:09:13;;;;;;;0.50;0.50;;;1.30;99.90;;;;;;4976627;28;20066;-76
2021/12/21 00:11:39;;;;;;;1.15;0.90;;;1.30;99.90;;;;;;4976740;28;20501;-76
2021/12/21 00:14:17;;;;;;;0.00;0.00;;;1.20;99.90;;;;;;4976730;28;20026;-76
2021/12/21 00:17:01;;;;;;;0.00;0.00;;;1.20;99.90;;;;;;4976712;28;20033;-76
2021/12/21 00:22:16;;;;;;;0.00;0.00;;;1.10;99.90;;;;;;4976460;28;20027;-76
2021/12/21 00:24:47;;;;;;;0.00;0.00;;;1.10;99.90;;;;;;4976547;28;20062;-76
2021/12/21 00:27:14;;;;;;;4.75;0.65;;;1.20;99.90;;;;;;4959136;28;20136;-76
2021/12/21 00:29:40;;;;;;;0.20;0.20;;;1.20;99.90;;;;;;4957074;29;20045;-76
2021/12/21 00:32:06;;;;;;;0.10;0.10;;;1.20;99.90;;;;;;4957084;29;20463;-76
2021/12/21 00:34:32;;;;;;;0.68;0.60;;;1.10;99.90;;;;;;4957118;29;20027;-76
2021/12/21 00:36:58;;;;;;;0.32;0.32;;;1.20;99.90;;;;;;4939851;29;20114;-77
2021/12/21 00:39:23;;;;;;;0.77;0.77;;;1.20;99.90;;;;;;4956921;29;20185;-77
2021/12/21 00:41:49;;;;;;;0.47;0.47;;;1.20;99.90;;;;;;4955398;28;20078;-76
2021/12/21 00:44:14;;;;;;;1.10;0.65;;;1.30;99.90;;;;;;4956918;29;20023;-76
2021/12/21 00:46:40;;;;;;;0.68;0.68;;;1.30;99.90;;;;;;4956843;29;20031;-76
2021/12/21 00:49:16;;;;;;;6.22;0.85;;;1.30;99.90;;;;;;4956268;29;20051;-76
2021/12/21 00:51:44;;;;;;;0.50;0.50;;;1.30;99.90;;;;;;4956868;29;20093;-77
2021/12/21 00:54:11;;;;;;;0.17;0.17;;;1.30;99.90;;;;;;4956624;29;20019;-77
2021/12/21 00:56:37;;;;;;;0.40;0.40;;;1.40;99.90;;;;;;4949283;29;20020;-76
2021/12/21 00:59:04;;;;;;;0.68;0.68;;;1.40;99.90;;;;;;4937462;29;20078;-76
2021/12/21 01:01:30;;;;;;;0.03;0.03;;;1.30;99.90;;;;;;4954573;28;20038;-77
2021/12/21 01:03:58;;;;;;;6.10;1.38;;;1.40;99.90;;;;;;4976001;28;20027;-77
2021/12/21 01:06:39;;;;;;;0.35;0.35;;;1.40;99.90;;;;;;4975922;28;20023;-77
2021/12/21 01:11:40;;;;;;;2.55;0.82;;;1.40;99.90;;;;;;4974691;28;20129;-76
2021/12/21 01:17:12;;;;;;;0.10;0.10;;;1.40;99.90;;;;;;4975838;28;20099;-76
2021/12/21 01:19:43;;;;;;;0.75;0.47;;;1.40;99.90;;;;;;4975309;28;20058;-76
2021/12/21 01:29:31;;;;;;;0.00;0.00;;;1.40;99.90;;;;;;4975307;28;20027;-76
2021/12/21 01:34:51;;;;;;;1.15;1.05;;;1.40;99.90;;;;;;4975323;28;20537;-76
2021/12/21 01:37:27;;;;;;;1.05;0.63;;;1.40;99.90;;;;;;4975537;28;20030;-76
2021/12/21 01:40:16;;;;;;;0.40;0.40;;;1.30;99.90;;;;;;4975147;28;20504;-77
2021/12/21 01:50:39;;;;;;;0.45;0.30;;;1.40;99.90;;;;;;4955164;29;20083;-77
2021/12/21 01:53:05;;;;;;;5.38;0.90;;;1.40;99.90;;;;;;4955601;28;20057;-76
2021/12/21 01:55:31;;;;;;;0.10;0.10;;;1.40;99.90;;;;;;4958816;29;20105;-77
2021/12/21 01:57:56;;;;;;;0.40;0.40;;;1.30;99.90;;;;;;4958336;29;20030;-76
2021/12/21 02:00:22;;;;;;;1.45;0.88;;;1.30;99.90;;;;;;4938118;29;20044;-76
2021/12/21 02:02:48;;;;;;;1.02;0.80;;;1.30;99.90;;;;;;4939339;29;20031;-77
2021/12/21 02:05:14;;;;;;;0.10;0.10;;;1.40;99.90;;;;;;4938885;29;20498;-76
2021/12/21 02:07:40;;;;;;;0.00;0.00;;;1.30;99.90;;;;;;4936473;29;20040;-76
2021/12/21 02:10:06;;;;;;;0.05;0.05;;;1.30;99.90;;;;;;4935669;29;20035;-77
2021/12/21 02:12:32;;;;;;;0.45;0.45;;;1.10;99.90;;;;;;4936273;29;20034;-77
2021/12/21 02:15:00;;;;;;;0.32;0.32;;;1.00;99.90;;;;;;4936115;29;20102;-77
2021/12/21 02:20:39;;;;;;;0.35;0.30;;;0.90;99.90;;;;;;4935881;29;20143;-76
2021/12/21 02:23:17;;;;;;;0.00;0.00;;;0.80;99.90;;;;;;4935851;29;20039;-77
2021/12/21 02:30:54;;;;;;;0.00;0.00;;;0.60;99.90;;;;;;4935926;29;20114;-77
2021/12/21 02:33:21;;;;;;;0.55;0.55;;;0.50;99.90;;;;;;4935792;29;20027;-77
2021/12/21 02:35:47;;;;;;;0.73;0.73;;;0.50;99.90;;;;;;4935732;29;20504;-77
2021/12/21 02:38:13;;;;;;;2.22;0.77;;;0.40;99.90;;;;;;4935583;29;20042;-77
2021/12/21 02:40:39;;;;;;;0.20;0.20;;;0.30;99.90;;;;;;4935716;29;20480;-77
2021/12/21 02:43:06;;;;;;;0.03;0.03;;;0.20;99.90;;;;;;4934486;29;20019;-76
2021/12/21 02:45:32;;;;;;;0.00;0.00;;;0.10;99.90;;;;;;4935791;29;20038;-76
2021/12/21 02:47:58;;;;;;;0.15;0.15;;;0.10;99.90;;;;;;4935492;29;20032;-77
2021/12/21 02:50:24;;;;;;;0.30;0.30;;;0.00;99.90;;;;;;4935066;29;20087;-76
2021/12/21 02:52:51;;;;;;;2.50;1.08;;;0.00;99.90;;;;;;4918536;29;20353;-77
2021/12/21 02:55:17;;;;;;;0.08;0.08;;;0.00;99.90;;;;;;4935572;29;20028;-77
2021/12/21 02:57:43;;;;;;;2.35;2.08;;;0.00;99.90;;;;;;4967832;28;20070;-76
2021/12/21 03:00:10;;;;;;;0.00;0.00;;;-0.10;99.90;;;;;;4947876;29;20031;-77
2021/12/21 03:02:36;;;;;;;1.08;0.65;;;-0.10;99.90;;;;;;4902724;29;20043;-76
2021/12/21 03:05:02;;;;;;;0.20;0.20;;;-0.20;99.90;;;;;;4935322;29;20118;-76
2021/12/21 03:10:15;;;;;;;2.47;0.47;;;-0.20;99.90;;;;;;4935078;29;20046;-76
2021/12/21 03:15:23;;;;;;;0.20;0.20;;;-0.30;99.90;;;;;;4935502;29;20539;-77
2021/12/21 03:17:50;;;;;;;0.13;0.13;;;-0.30;99.90;;;;;;4935151;29;20074;-76
2021/12/21 03:20:16;;;;;;;0.10;0.10;;;-0.30;99.90;;;;;;4934942;29;20423;-76
2021/12/21 03:22:42;;;;;;;0.00;0.00;;;-0.30;99.90;;;;;;4935290;29;20039;-77
2021/12/21 03:25:08;;;;;;;1.42;0.40;;;-0.30;99.90;;;;;;4935170;29;20035;-77
2021/12/21 03:27:34;;;;;;;0.30;0.30;;;-0.30;99.90;;;;;;4935476;29;20027;-77
2021/12/21 03:30:00;;;;;;;0.00;0.00;;;-0.20;99.90;;;;;;4935209;29;20036;-77
2021/12/21 03:32:25;;;;;;;0.32;0.05;;;-0.20;99.90;;;;;;4935356;29;20565;-77
2021/12/21 03:34:51;;;;;;;0.43;0.35;;;-0.20;99.90;;;;;;4935337;29;20027;-76
2021/12/21 03:37:17;;;;;;;0.47;0.47;;;-0.20;99.90;;;;;;4935158;29;20031;-76
2021/12/21 03:39:45;;;;;;;0.00;0.00;;;-0.20;99.90;;;;;;4951480;28;20041;-77
2021/12/21 03:42:14;;;;;;;0.05;0.05;;;-0.20;99.90;;;;;;4954141;29;20553;-77
2021/12/21 03:44:40;;;;;;;0.30;0.30;;;-0.20;99.90;;;;;;4952823;29;20038;-76
2021/12/21 03:47:09;;;;;;;0.00;0.00;;;-0.20;99.90;;;;;;4953906;29;20024;-77
2021/12/21 03:52:06;;;;;;;0.77;0.77;;;-0.30;99.90;;;;;;4954398;29;20045;-76
2021/12/21 03:54:32;;;;;;;0.20;0.20;;;-0.30;99.90;;;;;;4954271;29;20032;-77
2021/12/21 03:56:57;;;;;;;0.00;0.00;;;-0.30;99.90;;;;;;4943904;29;20023;-77
2021/12/21 03:59:23;;;;;;;0.17;0.17;;;-0.30;99.90;;;;;;4934934;29;20111;-77
2021/12/21 04:01:50;;;;;;;0.20;0.20;;;-0.40;99.90;;;;;;4934991;29;20028;-77
2021/12/21 04:04:18;;;;;;;0.00;0.00;;;-0.40;99.90;;;;;;4934731;29;20083;-77
2021/12/21 04:06:44;;;;;;;1.73;0.20;;;-0.50;99.90;;;;;;4935469;29;20028;-77
2021/12/21 04:09:09;;;;;;;0.35;0.35;;;-0.50;99.90;;;;;;4934663;29;20412;-77
2021/12/21 04:11:35;;;;;;;0.82;0.80;;;-0.50;99.90;;;;;;4932257;29;20043;-77
2021/12/21 04:14:01;;;;;;;0.38;0.38;;;-0.60;99.90;;;;;;4934812;29;20032;-77
2021/12/21 04:16:28;;;;;;;0.00;0.00;;;-0.60;99.90;;;;;;4935825;29;20024;-76
2021/12/21 04:18:54;;;;;;;0.15;0.15;;;-0.60;99.90;;;;;;4937698;29;20415;-77
2021/12/21 04:21:20;;;;;;;0.00;0.00;;;-0.60;99.90;;;;;;4938195;29;20039;-77
2021/12/21 04:23:46;;;;;;;0.40;0.38;;;-0.70;99.90;;;;;;4936919;29;20043;-77
2021/12/21 04:26:15;;;;;;;0.00;0.00;;;-0.70;99.90;;;;;;4955995;28;20027;-77
2021/12/21 04:28:42;;;;;;;0.43;0.38;;;-0.70;99.90;;;;;;4976559;28;20113;-77
2021/12/21 04:31:10;;;;;;;0.20;0.20;;;-0.70;99.90;;;;;;4975870;28;20023;-76
2021/12/21 04:33:37;;;;;;;0.00;0.00;;;-0.80;99.90;;;;;;4976433;28;20035;-77
2021/12/21 04:36:04;;;;;;;0.60;0.60;;;-0.80;99.90;;;;;;4976358;28;20034;-77
2021/12/21 04:38:35;;;;;;;0.22;0.17;;;-0.80;99.90;;;;;;4969664;28;20034;-76
2021/12/21 04:41:09;;;;;;;0.10;0.10;;;-0.90;99.90;;;;;;4956974;29;20027;-77
2021/12/21 04:43:35;;;;;;;0.30;0.30;;;-0.90;99.90;;;;;;4955478;29;20059;-77
2021/12/21 04:46:00;;;;;;;0.08;0.08;;;-0.90;99.90;;;;;;4956973;29;20435;-76
2021/12/21 04:48:26;;;;;;;0.43;0.43;;;-1.00;99.90;;;;;;4956858;29;20066;-76
2021/12/21 04:50:52;;;;;;;0.00;0.00;;;-1.00;99.90;;;;;;4956808;29;20066;-77
2021/12/21 04:53:18;;;;;;;2.55;1.08;;;-1.00;99.90;;;;;;4956740;29;20571;-77
2021/12/21 04:55:43;;;;;;;0.43;0.43;;;-1.00;99.90;;;;;;4956693;29;20098;-77
2021/12/21 04:58:09;;;;;;;0.00;0.00;;;-1.00;99.90;;;;;;4956556;29;20027;-76
2021/12/21 05:00:36;;;;;;;0.00;0.00;;;-1.00;99.90;;;;;;4956739;29;20027;-77
2021/12/21 05:03:02;;;;;;;0.10;0.10;;;-1.10;99.90;;;;;;4956496;29;20051;-77
2021/12/21 05:05:28;;;;;;;1.50;0.80;;;-1.10;99.90;;;;;;4956594;29;20031;-77
2021/12/21 05:08:06;;;;;;;0.08;0.08;;;-1.10;99.90;;;;;;4956555;29;20074;-77
2021/12/21 05:10:42;;;;;;;0.10;0.10;;;-1.00;99.90;;;;;;4938991;29;20034;-76
2021/12/21 05:13:08;;;;;;;0.05;0.05;;;-1.10;99.90;;;;;;4956500;29;20027;-77
2021/12/21 05:15:34;;;;;;;0.00;0.00;;;-1.10;99.90;;;;;;4956505;29;20391;-76
2021/12/21 05:17:59;;;;;;;0.08;0.05;;;-1.00;99.90;;;;;;4956188;29;20114;-76
2021/12/21 05:20:25;;;;;;;0.00;0.00;;;-1.00;99.90;;;;;;4956072;29;20066;-77
2021/12/21 05:22:51;;;;;;;0.00;0.00;;;-1.10;99.90;;;;;;4956230;29;20027;-76
2021/12/21 05:25:17;;;;;;;0.05;0.05;;;-1.10;99.90;;;;;;4956405;29;20027;-77
2021/12/21 05:27:43;;;;;;;0.40;0.40;;;-1.10;99.90;;;;;;4955630;28;20062;-77
2021/12/21 05:30:10;;;;;;;0.43;0.43;;;-1.10;99.90;;;;;;4955711;29;20487;-76
2021/12/21 05:32:35;;;;;;;0.00;0.00;;;-1.10;99.90;;;;;;4956045;29;20027;-77
2021/12/21 05:35:01;;;;;;;0.25;0.25;;;-1.10;99.90;;;;;;4956083;29;20372;-76
2021/12/21 05:37:27;;;;;;;0.05;0.05;;;-1.10;99.90;;;;;;4956098;29;20031;-77
2021/12/21 05:40:00;;;;;;;0.45;0.45;;;-1.10;99.90;;;;;;4955972;28;20115;-76
2021/12/21 05:42:26;;;;;;;2.08;1.98;;;-1.10;99.90;;;;;;4938664;29;20027;-76
2021/12/21 05:44:52;;;;;;;1.05;0.95;;;-1.10;99.90;;;;;;4954595;29;20042;-76
2021/12/21 05:47:19;;;;;;;0.47;0.43;;;-1.10;99.90;;;;;;4966501;28;20058;-76
2021/12/21 05:49:45;;;;;;;0.38;0.10;;;-1.10;99.90;;;;;;4974343;28;20512;-76
2021/12/21 05:52:11;;;;;;;0.20;0.20;;;-1.10;99.90;;;;;;4974958;28;20073;-76
2021/12/21 05:54:37;;;;;;;0.05;0.05;;;-1.10;99.90;;;;;;4975218;28;20033;-77
2021/12/21 05:57:04;;;;;;;0.00;0.00;;;-1.10;99.90;;;;;;4974815;28;20026;-76
2021/12/21 05:59:29;;;;;;;0.08;0.08;;;-1.10;99.90;;;;;;4974394;28;20513;-76
2021/12/21 06:01:55;;;;;;;1.25;0.50;;;-1.10;99.90;;;;;;4974171;28;20023;-76
2021/12/21 06:04:21;;;;;;;0.10;0.10;;;-1.10;99.90;;;;;;4957072;28;20117;-75
2021/12/21 06:06:48;;;;;;;0.00;0.00;;;-1.10;99.90;;;;;;4975274;28;20023;-76
2021/12/21 06:09:14;;;;;;;0.00;0.00;;;-1.10;99.90;;;;;;4974521;28;20031;-76
2021/12/21 06:12:10;;;;;;;0.52;0.52;;;-1.10;99.90;;;;;;4974705;28;20023;-76
2021/12/21 06:22:46;;;;;;;0.00;0.00;;;-1.00;99.90;;;;;;4974637;28;20077;-78
2021/12/21 06:27:56;;;;;;;0.00;0.00;;;-0.90;99.90;;;;;;4974506;28;20034;-77
2021/12/21 06:30:22;;;;;;;0.00;0.00;;;-0.90;99.90;;;;;;4973990;28;20039;-78
2021/12/21 06:32:48;;;;;;;0.00;0.00;;;-0.90;99.90;;;;;;4957128;28;20019;-78
2021/12/21 06:35:14;;;;;;;0.63;0.63;;;-0.90;99.90;;;;;;4972697;28;20034;-77
2021/12/21 06:37:40;;;;;;;1.85;0.60;;;-0.90;99.90;;;;;;4954766;28;20510;-77
2021/12/21 06:40:06;;;;;;;0.40;0.40;;;-0.90;99.90;;;;;;4959084;28;20082;-77
2021/12/21 06:42:32;;;;;;;0.00;0.00;;;-0.90;99.90;;;;;;4956800;28;20121;-77
2021/12/21 06:45:00;;;;;;;0.63;0.63;;;-1.00;99.90;;;;;;4973165;28;20371;-77
2021/12/21 06:52:54;;;;;;;0.22;0.22;;;-1.00;99.90;;;;;;4954825;28;20042;-77
2021/12/21 06:55:20;;;;;;;0.15;0.15;;;-1.00;99.90;;;;;;4954693;29;20019;-78
2021/12/21 06:57:46;;;;;;;0.05;0.05;;;-1.10;99.90;;;;;;4954631;29;20026;-78
2021/12/21 07:00:14;;;;;;;0.00;0.00;;;-1.10;99.90;;;;;;4954447;29;20075;-78
2021/12/21 07:02:40;;;;;;;0.10;0.10;;;-1.00;99.90;;;;;;4954636;29;20082;-77
2021/12/21 07:05:07;;;;;;;0.40;0.40;;;-1.00;99.90;;;;;;4954419;29;20031;-76
2021/12/21 07:07:33;;;;;;;0.25;0.25;;;-1.00;99.90;;;;;;4963192;28;20027;-77
2021/12/21 07:10:02;;;;;;;0.00;0.00;;;-1.00;99.90;;;;;;4952953;29;20028;-77
2021/12/21 07:18:09;;;;;;;0.00;0.00;;;-1.10;99.90;;;;;;4964372;28;20053;-77
2021/12/21 07:20:35;;;;;;;5.25;0.52;;;-1.10;99.90;;;;;;4957992;28;20054;-77
2021/12/21 07:23:01;;;;;;;0.00;0.00;;;-1.10;99.90;;;;;;4935877;28;20123;-77
2021/12/21 07:25:27;;;;;;;0.55;0.55;;;-1.10;99.90;;;;;;4956469;28;20031;-77
2021/12/21 07:27:54;;;;;;;0.00;0.00;;;-1.10;99.90;;;;;;4971498;28;20038;-77
2021/12/21 07:30:19;;;;;;;0.10;0.10;;;-1.20;99.90;;;;;;4972943;28;20035;-77
2021/12/21 07:32:45;;;;;;;0.35;0.17;;;-1.10;99.90;;;;;;4955603;28;20082;-76
2021/12/21 07:35:11;;;;;;;0.10;0.10;;;-1.20;99.90;;;;;;4952346;28;20035;-77
2021/12/21 07:37:37;;;;;;;0.00;0.00;;;-1.20;99.90;;;;;;4964862;28;20019;-77
2021/12/21 07:40:07;;;;;;;0.32;0.32;;;-1.10;99.90;;;;;;4953500;28;20106;-77
2021/12/21 07:42:33;;;;;;;0.10;0.10;;;-1.20;99.90;;;;;;4934377;29;20079;-77
2021/12/21 07:44:59;;;;;;;1.20;0.45;;;-1.20;99.90;;;;;;4934375;28;20036;-77
2021/12/21 07:47:25;;;;;;;0.00;0.00;;;-1.20;99.90;;;;;;4965120;28;20067;-77
2021/12/21 07:49:51;;;;;;;0.10;0.10;;;-1.20;99.90;;;;;;4973400;28;20106;-77
2021/12/21 07:52:18;;;;;;;0.30;0.30;;;-1.10;99.90;;;;;;4956000;28;20031;-77
2021/12/21 07:54:44;;;;;;;0.00;0.00;;;-1.10;99.90;;;;;;4961634;28;20387;-77
2021/12/21 07:57:10;;;;;;;1.08;0.75;;;-1.10;99.90;;;;;;4959392;28;20470;-77
2021/12/21 07:59:37;;;;;;;1.55;1.25;;;-1.00;99.90;;;;;;4956763;28;20066;-77
2021/12/21 08:02:04;;;;;;;0.00;0.00;;;-1.00;99.90;;;;;;4938357;29;20027;-77
2021/12/21 08:04:33;;;;;;;0.28;0.28;;;-0.90;99.90;;;;;;4955221;28;20027;-78
2021/12/21 08:07:05;;;;;;;1.67;1.27;;;-0.90;99.90;;;;;;4958868;28;20541;-80
2021/12/21 08:09:37;;;;;;;0.93;0.77;;;-0.90;99.90;;;;;;4955727;28;20027;-77
2021/12/21 08:12:17;;;;;;;0.10;0.10;;;-0.80;99.90;;;;;;4952980;28;20382;-77
2021/12/21 08:14:48;;;;;;;0.00;0.00;;;-0.80;99.90;;;;;;4937612;29;20503;-78
2021/12/21 08:17:14;;;;;;;0.30;0.30;;;-0.70;99.90;;;;;;4960801;28;20031;-78
2021/12/21 08:19:40;;;;;;;0.03;0.03;;;-0.70;99.90;;;;;;4956092;28;20043;-77
2021/12/21 08:22:06;;;;;;;0.10;0.10;;;-0.70;99.90;;;;;;4955130;28;20038;-78
2021/12/21 08:24:33;;;;;;;1.17;1.13;;;-0.60;99.90;;;;;;4954892;28;20058;-77
2021/12/21 08:27:00;;;;;;;0.00;0.00;;;-0.60;99.90;;;;;;4959071;28;20023;-78
2021/12/21 08:29:27;;;;;;;0.00;0.00;;;-0.60;99.90;;;;;;4960884;28;20126;-78
2021/12/21 08:31:53;;;;;;;0.93;0.50;;;-0.50;99.90;;;;;;4966978;28;20054;-78
2021/12/21 08:34:18;;;;;;;1.30;1.20;;;-0.40;99.90;;;;;;4947002;28;20102;-77
2021/12/21 08:36:44;;;;;;;1.40;1.30;;;-0.40;99.90;;;;;;4959925;28;20098;-78
2021/12/21 08:39:11;;;;;;;0.35;0.35;;;-0.30;99.90;;;;;;4957955;28;20485;-78
2021/12/21 08:41:41;;;;;;;0.00;0.00;;;-0.30;99.90;;;;;;4956476;28;20058;-78
2021/12/21 08:44:09;;;;;;;0.98;0.47;;;-0.20;99.90;;;;;;4955076;28;20047;-78
2021/12/21 08:46:35;;;;;;;0.05;0.05;;;-0.10;99.90;;;;;;4959649;28;20011;-78
2021/12/21 08:49:01;;;;;;;2.17;0.70;;;-0.10;99.90;;;;;;4972879;28;20023;-78
2021/12/21 08:51:26;;;;;;;0.85;0.43;;;-0.10;99.90;;;;;;4975584;28;20031;-78
2021/12/21 08:53:52;;;;;;;6.75;1.27;;;0.00;99.90;;;;;;4973628;28;20030;-78
2021/12/21 08:56:18;;;;;;;0.88;0.65;;;0.10;99.90;;;;;;4961096;28;20015;-78
2021/12/21 08:58:43;;;;;;;0.00;0.00;;;0.10;99.90;;;;;;4965907;28;20042;-78
2021/12/21 09:01:09;;;;;;;0.00;0.00;;;0.20;99.90;;;;;;4962049;28;20027;-77
2021/12/21 09:03:34;;;;;;;0.88;0.88;;;0.30;99.90;;;;;;4961355;28;20383;-78
2021/12/21 09:06:01;;;;;;;0.10;0.10;;;0.40;99.90;;;;;;4970858;28;20031;-78
2021/12/21 09:08:27;;;;;;;0.22;0.22;;;0.50;99.90;;;;;;4961539;28;20122;-78
2021/12/21 09:10:54;;;;;;;2.55;1.45;;;0.60;99.90;;;;;;4956789;28;20122;-77
2021/12/21 09:13:19;;;;;;;0.00;0.00;;;0.60;99.90;;;;;;4967448;28;20042;-78
2021/12/21 09:15:45;;;;;;;0.15;0.15;;;0.70;99.90;;;;;;4954849;28;20020;-78
2021/12/21 09:18:11;;;;;;;0.03;0.03;;;0.70;99.90;;;;;;4958092;28;20031;-78
2021/12/21 09:20:37;;;;;;;1.55;1.20;;;0.80;99.90;;;;;;4954026;28;20079;-77
2021/12/21 09:23:03;;;;;;;0.60;0.60;;;0.80;99.90;;;;;;4956043;29;20115;-78
2021/12/21 09:25:30;;;;;;;0.15;0.15;;;0.90;99.90;;;;;;4961383;28;20107;-78
2021/12/21 09:27:57;;;;;;;0.57;0.57;;;1.00;99.90;;;;;;4956202;28;20058;-78
2021/12/21 09:30:26;;;;;;;0.10;0.10;;;1.10;99.90;;;;;;4975875;28;20057;-78
2021/12/21 09:32:51;;;;;;;0.20;0.20;;;1.10;99.90;;;;;;4968875;28;20039;-77
2021/12/21 09:35:18;;;;;;;2.17;0.98;;;1.10;99.90;;;;;;4958965;28;20550;-76
2021/12/21 09:37:44;;;;;;;1.52;0.65;;;1.20;99.90;;;;;;4969003;28;20079;-78
2021/12/21 09:40:14;;;;;;;0.13;0.13;;;1.20;99.90;;;;;;4955088;29;20028;-75
2021/12/21 09:42:40;;;;;;;0.25;0.25;;;1.20;99.90;;;;;;4953810;28;20023;-78
2021/12/21 09:45:06;;;;;;;1.00;0.93;;;1.30;99.90;;;;;;4955300;28;20031;-78
2021/12/21 09:47:33;;;;;;;0.28;0.28;;;1.20;99.90;;;;;;4965621;28;20461;-77
2021/12/21 09:49:59;;;;;;;0.20;0.20;;;1.30;99.90;;;;;;4954381;28;20383;-75
2021/12/21 09:52:30;;;;;;;0.05;0.05;;;1.30;99.90;;;;;;4961895;28;20027;-77
2021/12/21 09:54:57;;;;;;;1.67;1.25;;;1.30;99.90;;;;;;4936957;29;20479;-77
2021/12/21 09:57:23;;;;;;;0.00;0.00;;;1.40;99.90;;;;;;4956336;28;20451;-77
2021/12/21 09:59:50;;;;;;;0.00;0.00;;;1.40;99.90;;;;;;4955123;29;20054;-77
2021/12/21 10:02:21;;;;;;;1.88;1.73;;;1.50;99.90;;;;;;4953774;28;20406;-77
2021/12/21 10:04:57;;;;;;;0.68;0.68;;;1.50;99.90;;;;;;4954195;28;20023;-82
2021/12/21 10:07:24;;;;;;;1.45;0.43;;;1.60;99.90;;;;;;4959584;28;20043;-76
2021/12/21 10:10:00;;;;;;;0.90;0.80;;;1.80;99.90;;;;;;4935209;29;20137;-77
2021/12/21 10:12:31;;;;;;;3.95;1.45;;;2.00;99.90;;;;;;4965651;28;20027;-77
2021/12/21 10:15:16;;;;;;;0.63;0.63;;;2.00;99.90;;;;;;4971365;28;20363;-77
2021/12/21 10:17:49;;;;;;;0.10;0.10;;;2.10;99.90;;;;;;4960377;28;20030;-77
2021/12/21 10:20:28;;;;;;;0.60;0.60;;;2.20;99.90;;;;;;4953953;28;20039;-77
2021/12/21 10:22:54;;;;;;;0.55;0.30;;;2.40;99.90;;;;;;4960184;28;20034;-77
2021/12/21 10:25:19;;;;;;;1.17;0.77;;;2.50;99.90;;;;;;4974733;28;20027;-77
2021/12/21 10:27:45;;;;;;;0.25;0.25;;;2.50;99.90;;;;;;4954665;29;20106;-77
2021/12/21 10:30:12;;;;;;;0.05;0.05;;;2.60;99.90;;;;;;4961936;28;20034;-77
2021/12/21 10:32:52;;;;;;;0.82;0.70;;;2.60;99.90;;;;;;4972022;28;20054;-77
2021/12/21 10:35:19;;;;;;;0.60;0.60;;;2.70;99.90;;;;;;4935534;29;20049;-76
2021/12/21 10:37:49;;;;;;;4.82;1.17;;;2.80;99.90;;;;;;4954110;28;20031;-77
2021/12/21 10:40:24;;;;;;;1.13;1.02;;;2.70;99.90;;;;;;4968081;28;20026;-77
2021/12/21 10:43:04;;;;;;;0.17;0.17;;;2.80;99.90;;;;;;4979519;28;20103;-77
2021/12/21 10:45:41;;;;;;;0.22;0.22;;;2.90;99.90;;;;;;4953782;28;20037;-77
2021/12/21 10:48:16;;;;;;;2.38;1.17;;;3.00;99.90;;;;;;4958164;28;20038;-77
2021/12/21 10:50:43;;;;;;;1.38;0.88;;;3.20;99.90;;;;;;4973038;28;20066;-77
2021/12/21 10:53:25;;;;;;;1.17;1.08;;;3.30;99.90;;;;;;4954544;28;20051;-77
2021/12/21 10:56:17;;;;;;;0.30;0.30;;;3.40;99.90;;;;;;4963630;28;20026;-77
2021/12/21 10:58:45;;;;;;;0.17;0.17;;;3.50;99.90;;;;;;4951254;28;20054;-77
2021/12/21 11:01:13;;;;;;;0.20;0.20;;;3.60;99.90;;;;;;4952585;28;20356;-75
2021/12/21 11:03:51;;;;;;;0.20;0.20;;;3.70;99.90;;;;;;4952909;28;20038;-77
2021/12/21 11:06:27;;;;;;;0.52;0.52;;;3.80;99.90;;;;;;4956493;28;20039;-77
2021/12/21 11:08:55;;;;;;;0.10;0.10;;;3.90;99.90;;;;;;4959613;28;20531;-77
2021/12/21 11:11:37;;;;;;;0.00;0.00;;;4.10;99.90;;;;;;4969034;28;20155;-77
2021/12/21 11:14:06;;;;;;;0.52;0.52;;;4.20;99.90;;;;;;4965952;28;20023;-77
2021/12/21 11:16:42;;;;;;;0.25;0.25;;;4.20;99.90;;;;;;4935736;28;20082;-77
2021/12/21 11:19:10;;;;;;;0.30;0.30;;;4.20;99.90;;;;;;4934099;29;20052;-77
2021/12/21 11:21:36;;;;;;;1.30;1.23;;;4.30;99.90;;;;;;4955045;28;20066;-77
2021/12/21 11:24:05;;;;;;;0.68;0.68;;;4.50;99.90;;;;;;4956705;28;20031;-77
2021/12/21 11:26:32;;;;;;;0.13;0.13;;;4.60;99.90;;;;;;4963921;28;20640;-77
2021/12/21 11:29:04;;;;;;;6.22;0.22;;;4.60;99.90;;;;;;4942903;28;20031;-77
2021/12/21 11:31:32;;;;;;;1.85;1.30;;;4.80;99.90;;;;;;4939627;28;20074;-77
2021/12/21 11:33:59;;;;;;;0.00;0.00;;;4.80;99.90;;;;;;4964867;28;20042;-76
2021/12/21 11:39:09;;;;;;;0.93;0.93;;;5.00;99.90;;;;;;4969771;28;20045;-77
2021/12/21 11:41:37;;;;;;;2.53;0.73;;;5.20;99.90;;;;;;4975099;28;20485;-77
2021/12/21 11:44:06;;;;;;;1.42;0.88;;;5.30;99.90;;;;;;4942551;28;20030;-77
2021/12/21 11:46:39;;;;;;;0.55;0.55;;;5.40;99.90;;;;;;4957570;28;20058;-77
2021/12/21 11:49:16;;;;;;;;;;;5.40;99.90;;;;;;4955522;28;20429;-77
2021/12/21 11:51:42;;;;;;;0.47;0.40;;;5.50;99.90;;;;;;4961893;28;19961;-77
2021/12/21 11:54:22;;;;;;;0.52;0.52;;;5.80;99.90;;;;;;4937230;29;20019;-77
2021/12/21 11:56:48;;;;;;;0.32;0.32;;;5.90;99.90;;;;;;4970002;28;20486;-77
2021/12/21 11:59:21;;;;;;;6.22;1.40;;;5.90;99.90;;;;;;4953591;28;20030;-77
2021/12/21 12:01:47;;;;;;;0.70;0.40;;;6.10;99.90;;;;;;4960537;28;20085;-76
2021/12/21 12:04:13;;;;;;;3.03;1.85;;;6.10;99.90;;;;;;4955203;28;20062;-76
2021/12/21 12:06:49;;;;;;;0.52;0.52;;;6.10;99.90;;;;;;4964442;28;20035;-77
2021/12/21 12:09:40;;;;;;;0.63;0.63;;;6.10;99.90;;;;;;4957380;28;20086;-75
2021/12/21 12:12:09;;;;;;;0.88;0.20;;;6.20;99.90;;;;;;4962086;28;20039;-77
2021/12/21 12:14:37;;;;;;;1.75;1.65;;;6.20;99.90;;;;;;4977136;28;20058;-77
2021/12/21 12:17:17;;;;;;;1.55;1.45;;;6.40;99.90;;;;;;4964322;28;20495;-77
2021/12/21 12:19:54;;;;;;;0.10;0.10;;;6.50;99.90;;;;;;4964821;28;20508;-77
2021/12/21 12:22:38;;;;;;;2.30;0.45;;;6.40;99.90;;;;;;4950907;29;20038;-78
2021/12/21 12:25:07;;;;;;;1.65;1.15;;;6.50;99.90;;;;;;4957256;29;20028;-76
2021/12/21 12:27:44;;;;;;;0.10;0.10;;;6.60;99.90;;;;;;4944010;28;20077;-77
2021/12/21 12:30:13;;;;;;;1.80;1.15;;;6.80;99.90;;;;;;4967058;28;20041;-77
2021/12/21 12:33:05;;;;;;;0.82;0.82;;;7.00;99.90;;;;;;4957565;28;20019;-78
2021/12/21 12:35:33;;;;;;;2.10;1.45;;;7.00;99.90;;;;;;4953317;28;20027;-77
2021/12/21 12:38:05;;;;;;;0.63;0.63;;;6.90;99.90;;;;;;4932749;29;20019;-77
2021/12/21 12:40:45;;;;;;;0.90;0.90;;;7.00;99.90;;;;;;4936131;28;20053;-77
2021/12/21 12:43:15;;;;;;;1.10;0.90;;;7.20;99.90;;;;;;4937651;29;20027;-75
2021/12/21 12:45:51;;;;;;;0.68;0.68;;;7.30;99.90;;;;;;4956143;28;20640;-76
2021/12/21 12:48:20;;;;;;;0.10;0.10;;;7.40;99.90;;;;;;4945140;28;20066;-77
2021/12/21 12:50:47;;;;;;;0.57;0.57;;;7.60;99.90;;;;;;4954497;28;20089;-76
2021/12/21 12:53:12;;;;;;;16.77;2.25;;;7.60;99.90;;;;;;4952280;28;20086;-79
2021/12/21 12:55:53;;;;;;;0.77;0.68;;;7.70;99.90;;;;;;4941537;28;20035;-78
2021/12/21 12:58:24;;;;;;;0.10;0.10;;;7.70;99.90;;;;;;4949045;28;20376;-78
2021/12/21 13:00:55;;;;;;;3.58;0.85;;;7.80;99.90;;;;;;4954713;28;20506;-76
2021/12/21 13:03:32;;;;;;;0.40;0.40;;;7.80;99.90;;;;;;4948720;28;20031;-76
2021/12/21 13:05:59;;;;;;;0.38;0.25;;;8.00;99.90;;;;;;4958891;28;20039;-77
2021/12/21 13:08:29;;;;;;;7.78;0.82;;;8.00;99.90;;;;;;4961609;28;20058;-76
2021/12/21 13:10:57;;;;;;;0.03;0.03;;;8.00;99.90;;;;;;4934002;28;20043;-77
2021/12/21 13:13:38;;;;;;;0.17;0.17;;;7.90;99.90;;;;;;4952037;28;20031;-77
2021/12/21 13:16:10;;;;;;;0.65;0.65;;;8.10;99.90;;;;;;4950661;28;20051;-77
2021/12/21 13:18:54;;;;;;;0.17;0.17;;;8.20;99.90;;;;;;4956737;28;20023;-77
2021/12/21 13:21:24;;;;;;;0.65;0.43;;;8.30;99.90;;;;;;4960217;28;20480;-77
2021/12/21 13:23:58;;;;;;;0.93;0.75;;;8.30;99.90;;;;;;4937375;29;20083;-77
2021/12/21 13:26:40;;;;;;;2.30;0.77;;;8.40;99.90;;;;;;4965624;28;20029;-82
2021/12/21 13:29:14;;;;;;;0.47;0.47;;;8.50;99.90;;;;;;4955108;28;20036;-77
2021/12/21 13:31:40;;;;;;;1.10;1.10;;;8.60;99.90;;;;;;4965556;28;20031;-77
2021/12/21 13:34:07;;;;;;;0.57;0.57;;;8.80;99.90;;;;;;4963195;28;20023;-77
2021/12/21 13:36:36;;;;;;;1.65;0.95;;;9.10;99.90;;;;;;4940095;28;20121;-78
2021/12/21 13:39:13;;;;;;;1.13;0.98;;;9.40;99.90;;;;;;4954287;29;20070;-78
2021/12/21 13:41:51;;;;;;;0.95;0.82;;;9.50;99.90;;;;;;4939828;28;20086;-77
2021/12/21 13:44:42;;;;;;;0.43;0.43;;;9.30;99.90;;;;;;4955833;28;20403;-77
2021/12/21 13:47:24;;;;;;;0.28;0.28;;;9.10;99.90;;;;;;4953252;28;20117;-77
2021/12/21 13:50:07;;;;;;;0.10;0.10;;;9.00;99.90;;;;;;4949752;28;20378;-77
2021/12/21 13:52:36;;;;;;;12.65;0.75;;;8.90;99.90;;;;;;4954979;28;20371;-77
2021/12/21 13:55:06;;;;;;;0.43;0.43;;;8.70;99.90;;;;;;4954443;28;20024;-77
2021/12/21 13:57:33;;;;;;;0.38;0.13;;;8.40;99.90;;;;;;4958392;28;20034;-77
2021/12/21 14:00:06;;;;;;;2.40;0.75;;;8.10;99.90;;;;;;4937076;29;20561;-78
2021/12/21 14:02:35;;;;;;;1.85;0.43;;;8.00;99.90;;;;;;4954201;28;20494;-77
2021/12/21 14:05:06;;;;;;;0.00;0.00;;;7.90;99.90;;;;;;4954564;28;20091;-77
2021/12/21 14:07:41;;;;;;;0.35;0.30;;;7.90;99.90;;;;;;4939341;29;20074;-77
2021/12/21 14:10:12;;;;;;;1.30;0.77;;;7.90;99.90;;;;;;4959730;28;20031;-77